createdAt,value
2019-01-15T00:00:18.837Z,3.30
2019-01-15T00:02:48.744Z,2.20
2019-01-15T00:05:17.617Z,2.37
2019-01-15T00:07:46.556Z,2.62
2019-01-15T00:10:16.507Z,2.58
2019-01-15T00:12:45.768Z,2.90
2019-01-15T00:15:14.770Z,2.87
2019-01-15T00:17:43.522Z,2.60
2019-01-15T00:20:14.034Z,3.20
2019-01-15T00:22:43.033Z,3.00
2019-01-15T00:25:12.081Z,2.47
2019-01-15T00:27:41.029Z,2.85
2019-01-15T00:30:16.731Z,2.65
2019-01-15T00:32:46.429Z,3.20
2019-01-15T00:35:15.732Z,3.02
2019-01-15T00:37:45.031Z,2.85
2019-01-15T00:40:16.447Z,3.08
2019-01-15T00:42:45.671Z,3.60
2019-01-15T00:45:16.690Z,2.90
2019-01-15T00:47:46.327Z,3.00
2019-01-15T00:50:18.133Z,3.02
2019-01-15T00:52:47.555Z,3.33
2019-01-15T00:55:18.354Z,3.17
2019-01-15T00:57:47.473Z,3.65
2019-01-15T01:00:22.224Z,3.55
2019-01-15T01:02:51.389Z,3.45
2019-01-15T01:05:20.544Z,3.40
2019-01-15T01:07:49.336Z,3.55
2019-01-15T01:10:18.164Z,3.20
2019-01-15T01:12:47.000Z,2.85
2019-01-15T01:15:17.304Z,3.83
2019-01-15T01:17:46.256Z,2.95
2019-01-15T01:20:19.362Z,3.37
2019-01-15T01:22:48.101Z,3.33
2019-01-15T01:25:16.754Z,3.55
2019-01-15T01:27:45.840Z,3.30
2019-01-15T01:30:17.452Z,3.52
2019-01-15T01:32:46.668Z,3.55
2019-01-15T01:35:16.078Z,4.25
2019-01-15T01:37:45.306Z,3.92
2019-01-15T01:40:17.297Z,3.90
2019-01-15T01:42:46.567Z,4.30
2019-01-15T01:45:16.057Z,4.78
2019-01-15T01:47:44.922Z,3.77
2019-01-15T01:50:14.212Z,2.87
2019-01-15T01:52:43.377Z,3.85
2019-01-15T01:55:13.887Z,3.70
2019-01-15T01:57:43.497Z,3.30
2019-01-15T02:00:16.872Z,3.45
2019-01-15T02:02:45.756Z,4.37
2019-01-15T02:05:14.818Z,4.30
2019-01-15T02:07:44.782Z,4.50
2019-01-15T02:10:15.893Z,4.15
2019-01-15T02:12:45.286Z,4.00
2019-01-15T02:15:21.981Z,4.30
2019-01-15T02:17:52.051Z,4.72
2019-01-15T02:20:21.584Z,4.58
2019-01-15T02:22:50.959Z,4.40
2019-01-15T02:25:19.725Z,4.20
2019-01-15T02:27:50.206Z,5.33
2019-01-15T02:30:21.477Z,4.62
2019-01-15T02:32:51.376Z,5.05
2019-01-15T02:35:20.620Z,4.08
2019-01-15T02:37:49.525Z,4.40
2019-01-15T02:40:18.323Z,3.40
2019-01-15T02:42:47.296Z,5.10
2019-01-15T02:45:20.232Z,4.62
2019-01-15T02:47:49.193Z,4.05
2019-01-15T02:50:19.387Z,4.53
2019-01-15T02:52:49.543Z,4.30
2019-01-15T02:55:20.016Z,3.85
2019-01-15T02:57:49.670Z,4.10
2019-01-15T03:00:21.702Z,4.08
2019-01-15T03:02:51.064Z,4.05
2019-01-15T03:05:20.927Z,4.87
2019-01-15T03:07:49.930Z,3.27
2019-01-15T03:10:22.278Z,3.25
2019-01-15T03:12:55.665Z,3.55
2019-01-15T03:15:23.194Z,3.40
2019-01-15T03:17:52.462Z,2.70
2019-01-15T03:20:21.395Z,3.50
2019-01-15T03:22:50.105Z,3.40
2019-01-15T03:25:19.080Z,3.27
2019-01-15T03:27:47.880Z,2.87
2019-01-15T03:30:18.921Z,2.45
2019-01-15T03:32:48.126Z,3.47
2019-01-15T03:35:17.886Z,3.12
2019-01-15T03:37:47.758Z,3.55
2019-01-15T03:40:19.534Z,2.70
2019-01-15T03:42:50.212Z,2.83
2019-01-15T03:45:19.571Z,3.10
2019-01-15T03:47:48.484Z,2.72
2019-01-15T03:50:17.817Z,2.05
2019-01-15T03:52:46.567Z,2.47
2019-01-15T03:55:15.857Z,2.70
2019-01-15T03:57:44.915Z,2.65
2019-01-15T04:00:18.886Z,1.90
2019-01-15T04:02:47.952Z,2.50
2019-01-15T04:05:17.471Z,3.00
2019-01-15T04:07:47.284Z,2.85
2019-01-15T04:10:16.030Z,2.90
2019-01-15T04:12:45.328Z,3.15
2019-01-15T04:15:14.836Z,2.65
2019-01-15T04:17:44.261Z,3.05
2019-01-15T04:20:16.768Z,2.65
2019-01-15T04:22:47.091Z,2.98
2019-01-15T04:25:16.315Z,2.98
2019-01-15T04:27:46.156Z,4.30
2019-01-15T04:30:20.426Z,4.03
2019-01-15T04:32:49.301Z,3.50
2019-01-15T04:35:18.166Z,3.58
2019-01-15T04:37:47.841Z,1.85
2019-01-15T04:40:18.953Z,3.20
2019-01-15T04:42:48.103Z,2.90
2019-01-15T04:45:19.392Z,3.20
2019-01-15T04:47:48.249Z,2.02
2019-01-15T04:50:17.102Z,2.35
2019-01-15T04:52:48.118Z,2.55
2019-01-15T04:55:17.979Z,2.95
2019-01-15T04:57:47.760Z,2.80
2019-01-15T05:00:23.433Z,2.40
2019-01-15T05:02:52.765Z,2.95
2019-01-15T05:05:21.979Z,2.62
2019-01-15T05:07:52.151Z,2.47
2019-01-15T05:10:22.139Z,1.98
2019-01-15T05:12:51.332Z,3.17
2019-01-15T05:15:20.396Z,3.20
2019-01-15T05:17:49.827Z,3.30
2019-01-15T05:20:19.439Z,2.77
2019-01-15T05:22:48.340Z,2.45
2019-01-15T05:25:18.806Z,2.92
2019-01-15T05:27:47.670Z,2.92
2019-01-15T05:30:25.913Z,3.50
2019-01-15T05:32:55.255Z,2.75
2019-01-15T05:35:24.781Z,3.25
2019-01-15T05:37:55.071Z,2.60
2019-01-15T05:40:24.612Z,3.08
2019-01-15T05:42:53.871Z,3.20
2019-01-15T05:45:28.186Z,3.65
2019-01-15T05:47:58.952Z,3.25
2019-01-15T05:50:46.017Z,3.37
2019-01-15T05:53:14.775Z,2.85
2019-01-15T05:55:44.481Z,2.40
2019-01-15T05:58:14.100Z,3.40
2019-01-15T06:00:44.157Z,3.25
2019-01-15T06:03:13.568Z,3.47
2019-01-15T06:05:42.903Z,3.42
2019-01-15T06:08:12.168Z,3.67
2019-01-15T06:10:41.338Z,2.80
2019-01-15T06:13:10.118Z,3.50
2019-01-15T06:15:38.992Z,3.75
2019-01-15T06:18:08.422Z,3.05
2019-01-15T06:20:37.958Z,2.95
2019-01-15T06:23:07.419Z,3.37
2019-01-15T06:25:36.933Z,3.20
2019-01-15T06:28:06.414Z,3.62
2019-01-15T06:30:36.665Z,3.47
2019-01-15T06:33:05.845Z,2.80
2019-01-15T06:35:34.731Z,3.22
2019-01-15T06:38:04.281Z,3.12
2019-01-15T06:40:33.483Z,3.22
2019-01-15T06:43:03.866Z,3.05
2019-01-15T06:45:34.631Z,3.45
2019-01-15T06:48:04.269Z,3.72
2019-01-15T06:50:34.431Z,3.25
2019-01-15T06:53:04.105Z,4.05
2019-01-15T06:55:32.941Z,3.75
2019-01-15T06:58:02.156Z,3.22
2019-01-15T07:00:33.867Z,2.92
2019-01-15T07:03:03.888Z,3.65
2019-01-15T07:05:33.277Z,3.12
2019-01-15T07:08:02.872Z,3.72
2019-01-15T07:10:40.024Z,3.25
2019-01-15T07:13:09.236Z,3.67
2019-01-15T07:15:39.592Z,3.67
2019-01-15T07:18:09.069Z,3.50
2019-01-15T07:20:38.155Z,4.20
2019-01-15T07:23:07.471Z,3.95
2019-01-15T07:25:37.218Z,3.85
2019-01-15T07:28:06.440Z,4.00
2019-01-15T07:30:41.671Z,3.10
2019-01-15T07:33:10.784Z,4.72
2019-01-15T07:35:39.978Z,4.30
2019-01-15T07:38:10.890Z,4.22
2019-01-15T07:40:40.228Z,3.85
2019-01-15T07:43:09.731Z,4.55
2019-01-15T07:45:38.931Z,5.15
2019-01-15T07:48:08.538Z,5.28
2019-01-15T07:50:38.076Z,4.22
2019-01-15T07:53:07.272Z,5.15
2019-01-15T07:55:37.626Z,4.90
2019-01-15T07:58:07.032Z,4.75
2019-01-15T08:00:36.299Z,4.62
2019-01-15T08:03:06.032Z,5.40
2019-01-15T08:05:35.123Z,4.42
2019-01-15T08:08:04.814Z,5.45
2019-01-15T08:10:35.450Z,4.60
2019-01-15T08:13:05.155Z,5.03
2019-01-15T08:15:35.108Z,5.10
2019-01-15T08:18:04.827Z,4.75
2019-01-15T08:20:34.126Z,5.58
2019-01-15T08:23:03.557Z,4.70
2019-01-15T08:25:32.387Z,4.55
2019-01-15T08:28:02.052Z,4.70
2019-01-15T08:30:33.182Z,4.90
2019-01-15T08:33:02.592Z,5.67
2019-01-15T08:35:31.846Z,4.97
2019-01-15T08:38:01.667Z,5.87
2019-01-15T08:40:31.009Z,5.15
2019-01-15T08:43:00.411Z,5.28
2019-01-15T08:45:30.431Z,5.67
2019-01-15T08:48:01.266Z,5.25
2019-01-15T08:50:33.669Z,5.50
2019-01-15T08:53:03.037Z,5.03
2019-01-15T08:55:32.434Z,5.75
2019-01-15T08:58:01.499Z,5.70
2019-01-15T09:00:30.853Z,5.65
2019-01-15T09:03:00.412Z,5.50
2019-01-15T09:05:29.029Z,5.83
2019-01-15T09:07:58.432Z,6.40
2019-01-15T09:10:27.240Z,6.60
2019-01-15T09:12:56.169Z,5.40
2019-01-15T09:15:26.612Z,5.90
2019-01-15T09:17:55.867Z,6.40
2019-01-15T09:20:25.288Z,6.28
2019-01-15T09:22:54.287Z,6.45
2019-01-15T09:25:23.790Z,6.65
2019-01-15T09:27:53.012Z,7.70
2019-01-15T09:30:25.079Z,6.20
2019-01-15T09:32:54.455Z,6.55
2019-01-15T09:35:23.679Z,6.45
2019-01-15T09:37:53.592Z,6.62
2019-01-15T09:40:23.652Z,5.72
2019-01-15T09:42:53.146Z,6.75
2019-01-15T09:45:23.208Z,6.12
2019-01-15T09:47:57.470Z,6.65
2019-01-15T09:50:26.520Z,6.40
2019-01-15T09:52:55.593Z,6.37
2019-01-15T09:55:24.980Z,6.37
2019-01-15T09:57:54.729Z,6.75
2019-01-15T10:00:24.120Z,5.10
2019-01-15T10:02:53.736Z,5.78
2019-01-15T10:05:23.345Z,4.35
2019-01-15T10:07:52.833Z,5.05
2019-01-15T10:10:22.650Z,5.65
2019-01-15T10:12:51.831Z,6.08
2019-01-15T10:15:21.628Z,4.87
2019-01-15T10:17:51.210Z,4.95
2019-01-15T10:20:20.708Z,5.00
2019-01-15T10:22:50.371Z,5.67
2019-01-15T10:25:26.075Z,5.28
2019-01-15T10:27:56.145Z,4.80
2019-01-15T10:30:39.011Z,5.50
2019-01-15T10:33:25.659Z,3.40
2019-01-15T10:35:54.449Z,3.95
2019-01-15T10:38:25.067Z,4.40
2019-01-15T10:40:55.335Z,5.08
2019-01-15T10:43:24.340Z,4.75
2019-01-15T10:45:54.193Z,4.97
2019-01-15T10:48:23.481Z,4.90
2019-01-15T10:50:52.776Z,4.08
2019-01-15T10:53:21.890Z,4.67
2019-01-15T10:55:51.345Z,3.50
2019-01-15T10:58:20.851Z,4.25
2019-01-15T11:00:50.669Z,3.90
2019-01-15T11:03:20.314Z,4.40
2019-01-15T11:05:49.805Z,4.00
2019-01-15T11:08:19.656Z,4.55
2019-01-15T11:10:49.285Z,3.85
2019-01-15T11:13:18.844Z,3.47
2019-01-15T11:15:48.156Z,3.67
2019-01-15T11:18:17.390Z,2.60
2019-01-15T11:20:46.158Z,3.90
2019-01-15T11:23:15.520Z,3.50
2019-01-15T11:25:44.451Z,3.70
2019-01-15T11:28:14.551Z,3.85
2019-01-15T11:30:44.247Z,3.87
2019-01-15T11:33:13.568Z,3.65
2019-01-15T11:35:42.835Z,3.90
2019-01-15T11:38:12.254Z,3.60
2019-01-15T11:40:41.783Z,3.58
2019-01-15T11:43:11.202Z,3.33
2019-01-15T11:45:40.979Z,3.72
2019-01-15T11:48:10.365Z,3.27
2019-01-15T11:50:39.824Z,5.05
2019-01-15T11:53:09.060Z,4.42
2019-01-15T11:55:38.304Z,3.90
2019-01-15T11:58:07.751Z,3.50
2019-01-15T12:00:41.494Z,3.45
2019-01-15T12:03:27.830Z,3.75
2019-01-15T12:06:15.256Z,3.50
2019-01-15T12:09:01.567Z,3.90
2019-01-15T12:11:32.712Z,3.60
2019-01-15T12:14:20.741Z,3.95
2019-01-15T12:17:07.344Z,3.75
2019-01-15T12:19:50.875Z,5.35
2019-01-15T12:22:25.612Z,4.47
2019-01-15T12:25:03.165Z,4.55
2019-01-15T12:27:37.558Z,3.98
2019-01-15T12:30:16.162Z,3.95
2019-01-15T12:33:04.422Z,4.20
2019-01-15T12:35:41.318Z,4.70
2019-01-15T12:38:27.289Z,4.47
2019-01-15T12:41:01.328Z,5.03
2019-01-15T12:43:49.543Z,4.65
2019-01-15T12:46:20.351Z,4.30
2019-01-15T12:49:03.821Z,4.30
2019-01-15T12:51:46.332Z,4.30
2019-01-15T12:54:20.213Z,4.35
2019-01-15T12:56:50.598Z,4.55
2019-01-15T12:59:21.627Z,4.58
2019-01-15T13:01:58.407Z,4.42
2019-01-15T13:04:32.744Z,4.30
2019-01-15T13:07:03.845Z,4.12
2019-01-15T13:09:34.411Z,4.90
2019-01-15T13:12:06.046Z,5.10
2019-01-15T13:14:54.045Z,4.50
2019-01-15T13:17:27.778Z,4.37
2019-01-15T13:20:07.494Z,5.10
2019-01-15T13:22:45.621Z,5.40
2019-01-15T13:25:34.970Z,4.75
2019-01-15T13:28:06.547Z,4.20
2019-01-15T13:30:40.407Z,4.85
2019-01-15T13:33:19.857Z,4.55
2019-01-15T13:35:50.202Z,5.10
2019-01-15T13:38:20.996Z,4.65
2019-01-15T13:41:07.997Z,5.08
2019-01-15T13:43:45.623Z,4.20
2019-01-15T13:46:22.941Z,4.55
2019-01-15T13:48:54.284Z,4.05
2019-01-15T13:51:31.188Z,4.50
2019-01-15T13:54:02.276Z,4.30
2019-01-15T13:56:33.137Z,4.50
2019-01-15T13:59:04.371Z,5.05
2019-01-15T14:01:35.193Z,4.60
2019-01-15T14:04:09.179Z,4.55
2019-01-15T14:06:43.449Z,4.50
2019-01-15T14:09:20.438Z,5.10
2019-01-15T14:11:51.304Z,4.60
2019-01-15T14:14:38.682Z,5.22
2019-01-15T14:17:14.866Z,4.30
2019-01-15T14:19:48.186Z,5.15
2019-01-15T14:22:21.508Z,4.15
2019-01-15T14:25:09.715Z,4.90
2019-01-15T14:27:56.907Z,4.97
2019-01-15T14:30:45.811Z,5.70
2019-01-15T14:33:26.015Z,4.55
2019-01-15T14:36:12.582Z,5.05
2019-01-15T14:38:45.881Z,4.72
2019-01-15T14:41:22.853Z,4.70
2019-01-15T14:44:10.177Z,4.78
2019-01-15T14:46:50.826Z,5.12
2019-01-15T14:49:24.326Z,4.83
2019-01-15T14:52:11.418Z,4.25
2019-01-15T14:54:45.192Z,4.65
2019-01-15T14:57:15.992Z,4.47
2019-01-15T14:59:49.595Z,3.98
2019-01-15T15:02:25.857Z,4.60
2019-01-15T15:04:56.219Z,4.70
2019-01-15T15:07:26.717Z,4.90
2019-01-15T15:10:05.568Z,4.47
2019-01-15T15:12:36.480Z,4.60
2019-01-15T15:15:14.587Z,5.03
2019-01-15T15:17:51.269Z,4.40
2019-01-15T15:20:22.886Z,4.50
2019-01-15T15:23:13.205Z,5.00
2019-01-15T15:25:46.510Z,4.40
2019-01-15T15:28:29.406Z,5.00
2019-01-15T15:31:00.688Z,4.83
2019-01-15T15:33:37.397Z,5.12
2019-01-15T15:36:16.971Z,4.25
2019-01-15T15:38:59.272Z,4.37
2019-01-15T15:41:48.086Z,5.00
2019-01-15T15:44:31.000Z,4.65
2019-01-15T15:47:18.590Z,4.50
2019-01-15T15:49:51.539Z,4.47
2019-01-15T15:52:38.940Z,4.90
2019-01-15T15:55:11.233Z,4.62
2019-01-15T15:57:42.255Z,4.95
2019-01-15T16:00:17.639Z,4.17
2019-01-15T16:03:05.677Z,4.35
2019-01-15T16:05:39.258Z,5.40
2019-01-15T16:08:13.146Z,4.47
2019-01-15T16:10:56.158Z,4.90
2019-01-15T16:13:26.814Z,4.92
2019-01-15T16:16:09.806Z,5.83
2019-01-15T16:18:52.610Z,5.78
2019-01-15T16:21:38.500Z,4.90
2019-01-15T16:24:27.479Z,4.42
2019-01-15T16:26:58.606Z,4.55
2019-01-15T16:29:34.889Z,5.25
2019-01-15T16:32:11.897Z,4.72
2019-01-15T16:34:42.685Z,5.00
2019-01-15T16:37:18.814Z,5.00
2019-01-15T16:39:59.094Z,5.00
2019-01-15T16:42:48.114Z,4.75
2019-01-15T16:45:35.580Z,5.30
2019-01-15T16:48:15.654Z,4.58
2019-01-15T16:50:55.810Z,5.20
2019-01-15T16:53:43.346Z,4.90
2019-01-15T16:56:26.245Z,4.60
2019-01-15T16:59:07.207Z,5.30
2019-01-15T17:01:40.827Z,4.28
2019-01-15T17:04:11.570Z,4.00
2019-01-15T17:07:01.437Z,4.92
2019-01-15T17:09:39.817Z,4.95
2019-01-15T17:12:11.424Z,4.85
2019-01-15T17:14:50.720Z,4.58
2019-01-15T17:17:21.355Z,4.62
2019-01-15T17:20:06.532Z,5.30
2019-01-15T17:22:43.579Z,5.12
2019-01-15T17:25:32.766Z,4.90
2019-01-15T17:28:10.058Z,4.92
2019-01-15T17:30:40.831Z,4.90
2019-01-15T17:33:11.626Z,5.47
2019-01-15T17:35:59.375Z,5.30
2019-01-15T17:38:47.595Z,4.70
2019-01-15T17:41:24.277Z,5.20
2019-01-15T17:44:11.597Z,4.90
2019-01-15T17:46:45.937Z,4.67
2019-01-15T17:49:25.773Z,4.65
2019-01-15T17:52:00.281Z,5.40
2019-01-15T17:54:31.746Z,4.40
2019-01-15T17:57:08.208Z,4.95
2019-01-15T17:59:42.335Z,3.60
2019-01-15T18:02:16.225Z,4.92
2019-01-15T18:04:53.711Z,4.20
2019-01-15T18:07:33.556Z,4.70
2019-01-15T18:10:21.883Z,3.83
2019-01-15T18:13:09.435Z,4.00
2019-01-15T18:15:52.637Z,4.85
2019-01-15T18:18:26.428Z,5.28
2019-01-15T18:20:57.614Z,4.92
2019-01-15T18:23:35.549Z,4.85
2019-01-15T18:26:10.567Z,4.17
2019-01-15T18:28:50.993Z,5.22
2019-01-15T18:31:38.930Z,4.95
2019-01-15T18:34:17.573Z,4.70
2019-01-15T18:36:57.824Z,4.53
2019-01-15T18:39:47.339Z,4.45
2019-01-15T18:42:30.359Z,4.47
2019-01-15T18:45:09.730Z,3.90
2019-01-15T18:47:52.612Z,4.35
2019-01-15T18:50:36.002Z,5.00
2019-01-15T18:53:09.818Z,4.30
2019-01-15T18:55:57.716Z,5.40
2019-01-15T18:58:31.739Z,4.50
2019-01-15T19:01:14.570Z,3.85
2019-01-15T19:03:51.219Z,4.53
2019-01-15T19:06:27.873Z,3.95
2019-01-15T19:08:59.101Z,5.28
2019-01-15T19:11:33.094Z,4.42
2019-01-15T19:14:10.548Z,4.28
2019-01-15T19:16:47.816Z,4.90
2019-01-15T19:19:21.765Z,4.70
2019-01-15T19:21:59.173Z,4.97
2019-01-15T19:24:45.981Z,4.50
2019-01-15T19:27:28.690Z,5.58
2019-01-15T19:30:11.329Z,4.60
2019-01-15T19:32:41.809Z,4.33
2019-01-15T19:35:15.050Z,4.40
2019-01-15T19:37:55.569Z,4.70
2019-01-15T19:40:32.024Z,4.85
2019-01-15T19:43:05.669Z,4.75
2019-01-15T19:45:53.138Z,5.10
2019-01-15T19:48:24.390Z,6.00
2019-01-15T19:51:04.210Z,4.85
2019-01-15T19:53:52.011Z,4.55
2019-01-15T19:56:32.102Z,5.22
2019-01-15T19:59:17.849Z,5.00
2019-01-15T20:02:05.554Z,5.83
2019-01-15T20:04:39.638Z,5.00
2019-01-15T20:07:27.177Z,4.60
2019-01-15T20:10:13.687Z,4.60
2019-01-15T20:13:02.019Z,4.95
2019-01-15T20:15:41.067Z,4.60
2019-01-15T20:18:12.144Z,5.60
2019-01-15T20:20:55.153Z,4.62
2019-01-15T20:23:44.228Z,5.78
2019-01-15T20:26:21.722Z,5.22
2019-01-15T20:29:08.129Z,5.62
2019-01-15T20:31:45.517Z,4.70
2019-01-15T20:34:19.260Z,4.40
2019-01-15T20:36:53.125Z,5.78
2019-01-15T20:39:26.727Z,5.00
2019-01-15T20:42:14.125Z,4.80
2019-01-15T20:44:54.399Z,4.75
2019-01-15T20:47:44.871Z,5.05
2019-01-15T20:50:32.545Z,4.60
2019-01-15T20:53:09.013Z,5.03
2019-01-15T20:55:55.483Z,5.33
2019-01-15T20:58:31.673Z,5.00
2019-01-15T21:01:04.946Z,4.97
2019-01-15T21:03:36.078Z,5.20
2019-01-15T21:06:07.039Z,5.90
2019-01-15T21:08:54.551Z,4.80
2019-01-15T21:11:25.301Z,5.90
2019-01-15T21:14:02.755Z,5.65
2019-01-15T21:16:46.188Z,5.50
2019-01-15T21:19:33.719Z,5.10
2019-01-15T21:22:07.373Z,5.08
2019-01-15T21:24:56.070Z,5.53
2019-01-15T21:27:32.726Z,5.10
2019-01-15T21:30:09.532Z,4.58
2019-01-15T21:32:49.972Z,4.95
2019-01-15T21:35:39.668Z,5.60
2019-01-15T21:38:12.762Z,5.75
2019-01-15T21:40:49.628Z,5.17
2019-01-15T21:43:36.940Z,5.30
2019-01-15T21:46:16.843Z,6.17
2019-01-15T21:49:04.211Z,7.05
2019-01-15T21:51:53.395Z,5.67
2019-01-15T21:54:27.189Z,5.40
2019-01-15T21:56:59.022Z,5.90
2019-01-15T21:59:33.519Z,5.90
2019-01-15T22:02:07.431Z,6.25
2019-01-15T22:05:00.410Z,5.50
2019-01-15T22:07:47.966Z,5.42
2019-01-15T22:10:36.475Z,5.53
2019-01-15T22:13:13.108Z,5.92
2019-01-15T22:16:02.251Z,4.80
2019-01-15T22:18:38.409Z,5.47
2019-01-15T22:21:11.133Z,5.30
2019-01-15T22:23:54.524Z,5.10
2019-01-15T22:26:51.901Z,5.97
2019-01-15T22:29:24.525Z,5.05
2019-01-15T22:32:03.625Z,5.08
2019-01-15T22:34:47.035Z,4.58
2019-01-15T22:37:20.589Z,5.58
2019-01-15T22:39:56.903Z,4.62
2019-01-15T22:42:30.748Z,5.53
2019-01-15T22:45:11.375Z,4.92
2019-01-15T22:47:59.064Z,5.67
2019-01-15T22:50:30.401Z,4.95
2019-01-15T22:53:04.039Z,4.30
2019-01-15T22:55:48.541Z,4.45
2019-01-15T22:58:38.243Z,4.47
2019-01-15T23:01:27.219Z,5.35
2019-01-15T23:04:16.264Z,5.00
2019-01-15T23:07:03.070Z,4.53
2019-01-15T23:09:43.625Z,4.60
2019-01-15T23:12:17.509Z,5.53
2019-01-15T23:14:59.985Z,5.10
2019-01-15T23:17:33.688Z,4.00
2019-01-15T23:20:13.843Z,4.37
2019-01-15T23:22:50.930Z,4.30
2019-01-15T23:25:22.500Z,4.50
2019-01-15T23:28:10.372Z,4.60
2019-01-15T23:30:41.148Z,3.72
2019-01-15T23:33:21.680Z,4.47
2019-01-15T23:36:15.819Z,3.55
2019-01-15T23:38:46.622Z,3.85
2019-01-15T23:41:24.214Z,4.72
2019-01-15T23:43:57.343Z,4.40
2019-01-15T23:46:31.414Z,4.12
2019-01-15T23:49:17.372Z,3.80
2019-01-15T23:51:51.326Z,4.20
2019-01-15T23:54:33.793Z,3.98
2019-01-15T23:57:24.149Z,4.62
